sensor_id;sensor_type;location;lat;lon;timestamp;P1;durP1;ratioP1;P2;durP2;ratioP2
26181;SDS011;13927;51.534;11.866;2023-07-13T00:01:35;3.33;;;1.50;;
26181;SDS011;13927;51.534;11.866;2023-07-13T00:04:04;4.55;;;2.00;;
26181;SDS011;13927;51.534;11.866;2023-07-13T00:06:31;4.97;;;1.88;;
26181;SDS011;13927;51.534;11.866;2023-07-13T00:08:59;4.43;;;1.70;;
26181;SDS011;13927;51.534;11.866;2023-07-13T00:11:28;4.32;;;1.98;;
26181;SDS011;13927;51.534;11.866;2023-07-13T00:13:57;2.67;;;1.60;;
26181;SDS011;13927;51.534;11.866;2023-07-13T00:16:32;6.60;;;2.03;;
26181;SDS011;13927;51.534;11.866;2023-07-13T00:22:43;3.70;;;1.70;;
26181;SDS011;13927;51.534;11.866;2023-07-13T00:25:10;5.47;;;1.77;;
26181;SDS011;13927;51.534;11.866;2023-07-13T00:27:38;4.60;;;2.08;;
26181;SDS011;13927;51.534;11.866;2023-07-13T00:30:06;8.07;;;2.05;;
26181;SDS011;13927;51.534;11.866;2023-07-13T00:32:35;4.97;;;1.98;;
26181;SDS011;13927;51.534;11.866;2023-07-13T00:35:13;4.50;;;1.92;;
26181;SDS011;13927;51.534;11.866;2023-07-13T00:37:43;8.93;;;2.03;;
26181;SDS011;13927;51.534;11.866;2023-07-13T00:40:10;5.22;;;2.00;;
26181;SDS011;13927;51.534;11.866;2023-07-13T00:47:37;8.02;;;1.90;;
26181;SDS011;13927;51.534;11.866;2023-07-13T00:52:58;3.75;;;1.73;;
26181;SDS011;13927;51.534;11.866;2023-07-13T00:55:32;3.67;;;2.15;;
26181;SDS011;13927;51.534;11.866;2023-07-13T00:58:01;5.40;;;2.22;;
26181;SDS011;13927;51.534;11.866;2023-07-13T01:00:34;4.72;;;2.60;;
26181;SDS011;13927;51.534;11.866;2023-07-13T01:03:04;5.15;;;2.10;;
26181;SDS011;13927;51.534;11.866;2023-07-13T01:05:34;4.57;;;2.45;;
26181;SDS011;13927;51.534;11.866;2023-07-13T01:08:18;4.30;;;2.88;;
26181;SDS011;13927;51.534;11.866;2023-07-13T01:10:51;7.72;;;2.88;;
26181;SDS011;13927;51.534;11.866;2023-07-13T01:14:04;5.25;;;2.95;;
26181;SDS011;13927;51.534;11.866;2023-07-13T01:16:36;6.43;;;2.38;;
26181;SDS011;13927;51.534;11.866;2023-07-13T01:22:12;4.18;;;2.60;;
26181;SDS011;13927;51.534;11.866;2023-07-13T01:24:44;4.90;;;2.42;;
26181;SDS011;13927;51.534;11.866;2023-07-13T01:30:07;4.85;;;2.80;;
26181;SDS011;13927;51.534;11.866;2023-07-13T01:32:40;7.38;;;3.30;;
26181;SDS011;13927;51.534;11.866;2023-07-13T01:35:14;6.40;;;2.97;;
26181;SDS011;13927;51.534;11.866;2023-07-13T01:37:42;6.20;;;2.85;;
26181;SDS011;13927;51.534;11.866;2023-07-13T01:40:11;5.55;;;2.70;;
26181;SDS011;13927;51.534;11.866;2023-07-13T01:42:40;5.13;;;2.80;;
26181;SDS011;13927;51.534;11.866;2023-07-13T01:45:09;5.75;;;3.00;;
26181;SDS011;13927;51.534;11.866;2023-07-13T01:47:41;4.53;;;2.65;;
26181;SDS011;13927;51.534;11.866;2023-07-13T01:50:23;5.32;;;2.97;;
26181;SDS011;13927;51.534;11.866;2023-07-13T01:55:50;5.13;;;2.78;;
26181;SDS011;13927;51.534;11.866;2023-07-13T01:58:20;7.65;;;2.97;;
26181;SDS011;13927;51.534;11.866;2023-07-13T02:01:12;4.43;;;2.60;;
26181;SDS011;13927;51.534;11.866;2023-07-13T02:03:42;5.78;;;2.53;;
26181;SDS011;13927;51.534;11.866;2023-07-13T02:06:08;8.13;;;3.28;;
26181;SDS011;13927;51.534;11.866;2023-07-13T02:08:38;6.43;;;2.92;;
26181;SDS011;13927;51.534;11.866;2023-07-13T02:11:10;5.30;;;2.92;;
26181;SDS011;13927;51.534;11.866;2023-07-13T02:13:40;7.75;;;3.30;;
26181;SDS011;13927;51.534;11.866;2023-07-13T02:16:12;5.28;;;2.97;;
26181;SDS011;13927;51.534;11.866;2023-07-13T02:18:45;7.07;;;3.35;;
26181;SDS011;13927;51.534;11.866;2023-07-13T02:21:36;7.40;;;3.42;;
26181;SDS011;13927;51.534;11.866;2023-07-13T02:24:09;7.57;;;3.17;;
26181;SDS011;13927;51.534;11.866;2023-07-13T02:26:50;5.80;;;2.97;;
26181;SDS011;13927;51.534;11.866;2023-07-13T02:29:23;5.65;;;3.30;;
26181;SDS011;13927;51.534;11.866;2023-07-13T02:31:52;3.80;;;2.60;;
26181;SDS011;13927;51.534;11.866;2023-07-13T02:34:21;8.45;;;3.20;;
26181;SDS011;13927;51.534;11.866;2023-07-13T02:37:07;4.38;;;2.83;;
26181;SDS011;13927;51.534;11.866;2023-07-13T02:39:41;4.45;;;3.80;;
26181;SDS011;13927;51.534;11.866;2023-07-13T02:42:07;3.78;;;2.80;;
26181;SDS011;13927;51.534;11.866;2023-07-13T02:44:42;8.00;;;3.08;;
26181;SDS011;13927;51.534;11.866;2023-07-13T02:47:09;8.57;;;3.03;;
26181;SDS011;13927;51.534;11.866;2023-07-13T02:49:36;4.63;;;2.95;;
26181;SDS011;13927;51.534;11.866;2023-07-13T02:52:09;5.32;;;3.55;;
26181;SDS011;13927;51.534;11.866;2023-07-13T02:54:42;8.48;;;3.63;;
26181;SDS011;13927;51.534;11.866;2023-07-13T02:57:13;7.13;;;3.67;;
26181;SDS011;13927;51.534;11.866;2023-07-13T02:59:51;5.57;;;3.38;;
26181;SDS011;13927;51.534;11.866;2023-07-13T03:02:20;5.15;;;3.15;;
26181;SDS011;13927;51.534;11.866;2023-07-13T03:04:51;7.15;;;3.47;;
26181;SDS011;13927;51.534;11.866;2023-07-13T03:07:29;4.75;;;2.92;;
26181;SDS011;13927;51.534;11.866;2023-07-13T03:10:00;5.18;;;3.42;;
26181;SDS011;13927;51.534;11.866;2023-07-13T03:12:40;8.32;;;3.40;;
26181;SDS011;13927;51.534;11.866;2023-07-13T03:15:08;7.47;;;3.83;;
26181;SDS011;13927;51.534;11.866;2023-07-13T03:17:40;5.88;;;3.05;;
26181;SDS011;13927;51.534;11.866;2023-07-13T03:20:26;6.07;;;3.40;;
26181;SDS011;13927;51.534;11.866;2023-07-13T03:22:54;5.18;;;3.25;;
26181;SDS011;13927;51.534;11.866;2023-07-13T03:25:23;5.00;;;3.92;;
26181;SDS011;13927;51.534;11.866;2023-07-13T03:27:58;4.57;;;3.60;;
26181;SDS011;13927;51.534;11.866;2023-07-13T03:30:29;6.00;;;3.20;;
26181;SDS011;13927;51.534;11.866;2023-07-13T03:33:11;5.50;;;3.35;;
26181;SDS011;13927;51.534;11.866;2023-07-13T03:35:47;5.13;;;3.33;;
26181;SDS011;13927;51.534;11.866;2023-07-13T03:38:33;4.85;;;3.40;;
26181;SDS011;13927;51.534;11.866;2023-07-13T03:41:18;7.00;;;3.53;;
26181;SDS011;13927;51.534;11.866;2023-07-13T03:44:02;3.53;;;2.80;;
26181;SDS011;13927;51.534;11.866;2023-07-13T03:47:20;5.32;;;3.30;;
26181;SDS011;13927;51.534;11.866;2023-07-13T03:53:46;4.88;;;3.45;;
26181;SDS011;13927;51.534;11.866;2023-07-13T03:56:31;6.60;;;3.47;;
26181;SDS011;13927;51.534;11.866;2023-07-13T03:59:47;8.63;;;3.80;;
26181;SDS011;13927;51.534;11.866;2023-07-13T04:03:01;5.35;;;3.08;;
26181;SDS011;13927;51.534;11.866;2023-07-13T04:06:02;6.68;;;3.72;;
26181;SDS011;13927;51.534;11.866;2023-07-13T04:08:59;7.05;;;3.58;;
26181;SDS011;13927;51.534;11.866;2023-07-13T04:11:40;4.65;;;3.67;;
26181;SDS011;13927;51.534;11.866;2023-07-13T04:14:28;5.43;;;3.67;;
26181;SDS011;13927;51.534;11.866;2023-07-13T04:24:15;5.05;;;3.58;;
26181;SDS011;13927;51.534;11.866;2023-07-13T04:27:38;6.50;;;3.25;;
26181;SDS011;13927;51.534;11.866;2023-07-13T04:30:30;8.65;;;3.28;;
26181;SDS011;13927;51.534;11.866;2023-07-13T04:32:59;8.90;;;3.60;;
26181;SDS011;13927;51.534;11.866;2023-07-13T04:35:35;4.65;;;3.10;;
26181;SDS011;13927;51.534;11.866;2023-07-13T04:38:05;4.05;;;3.00;;
26181;SDS011;13927;51.534;11.866;2023-07-13T04:40:46;6.88;;;3.22;;
26181;SDS011;13927;51.534;11.866;2023-07-13T04:43:20;9.38;;;3.33;;
26181;SDS011;13927;51.534;11.866;2023-07-13T04:46:24;7.85;;;3.40;;
26181;SDS011;13927;51.534;11.866;2023-07-13T04:49:07;6.55;;;3.10;;
26181;SDS011;13927;51.534;11.866;2023-07-13T04:52:05;9.38;;;3.67;;
26181;SDS011;13927;51.534;11.866;2023-07-13T04:55:00;7.68;;;3.63;;
26181;SDS011;13927;51.534;11.866;2023-07-13T04:57:28;8.00;;;3.28;;
26181;SDS011;13927;51.534;11.866;2023-07-13T05:00:18;10.10;;;3.90;;
26181;SDS011;13927;51.534;11.866;2023-07-13T05:02:45;6.88;;;3.25;;
26181;SDS011;13927;51.534;11.866;2023-07-13T05:08:38;7.63;;;3.33;;
26181;SDS011;13927;51.534;11.866;2023-07-13T05:15:05;7.32;;;3.30;;
26181;SDS011;13927;51.534;11.866;2023-07-13T05:17:57;5.25;;;2.70;;
26181;SDS011;13927;51.534;11.866;2023-07-13T05:20:40;6.57;;;3.30;;
26181;SDS011;13927;51.534;11.866;2023-07-13T05:23:30;7.30;;;2.85;;
26181;SDS011;13927;51.534;11.866;2023-07-13T05:26:29;4.05;;;2.97;;
26181;SDS011;13927;51.534;11.866;2023-07-13T05:29:30;6.32;;;2.92;;
26181;SDS011;13927;51.534;11.866;2023-07-13T05:32:00;5.32;;;2.97;;
26181;SDS011;13927;51.534;11.866;2023-07-13T05:35:12;5.63;;;3.35;;
26181;SDS011;13927;51.534;11.866;2023-07-13T05:38:02;6.40;;;2.92;;
26181;SDS011;13927;51.534;11.866;2023-07-13T05:40:30;5.82;;;3.00;;
26181;SDS011;13927;51.534;11.866;2023-07-13T05:43:30;5.20;;;2.88;;
26181;SDS011;13927;51.534;11.866;2023-07-13T05:46:50;6.80;;;2.70;;
26181;SDS011;13927;51.534;11.866;2023-07-13T05:50:19;4.45;;;2.70;;
26181;SDS011;13927;51.534;11.866;2023-07-13T05:53:41;6.70;;;2.85;;
26181;SDS011;13927;51.534;11.866;2023-07-13T05:56:58;5.13;;;2.97;;
26181;SDS011;13927;51.534;11.866;2023-07-13T06:00:24;7.75;;;2.80;;
26181;SDS011;13927;51.534;11.866;2023-07-13T06:02:53;6.35;;;2.85;;
26181;SDS011;13927;51.534;11.866;2023-07-13T06:05:21;4.70;;;2.63;;
26181;SDS011;13927;51.534;11.866;2023-07-13T06:07:46;6.22;;;3.08;;
26181;SDS011;13927;51.534;11.866;2023-07-13T06:10:12;4.40;;;2.55;;
26181;SDS011;13927;51.534;11.866;2023-07-13T06:12:38;3.75;;;2.58;;
26181;SDS011;13927;51.534;11.866;2023-07-13T06:15:04;3.95;;;2.30;;
26181;SDS011;13927;51.534;11.866;2023-07-13T06:17:30;5.30;;;2.35;;
26181;SDS011;13927;51.534;11.866;2023-07-13T06:19:56;6.10;;;2.28;;
26181;SDS011;13927;51.534;11.866;2023-07-13T06:22:21;6.63;;;2.55;;
26181;SDS011;13927;51.534;11.866;2023-07-13T06:24:47;5.07;;;1.98;;
26181;SDS011;13927;51.534;11.866;2023-07-13T06:27:13;3.53;;;1.52;;
26181;SDS011;13927;51.534;11.866;2023-07-13T06:29:39;8.48;;;2.00;;
26181;SDS011;13927;51.534;11.866;2023-07-13T06:32:05;5.13;;;1.60;;
26181;SDS011;13927;51.534;11.866;2023-07-13T06:34:33;3.78;;;1.73;;
26181;SDS011;13927;51.534;11.866;2023-07-13T06:36:58;6.63;;;1.85;;
26181;SDS011;13927;51.534;11.866;2023-07-13T06:39:24;5.50;;;1.70;;
26181;SDS011;13927;51.534;11.866;2023-07-13T06:41:50;4.35;;;1.42;;
26181;SDS011;13927;51.534;11.866;2023-07-13T06:44:15;5.90;;;1.40;;
26181;SDS011;13927;51.534;11.866;2023-07-13T06:46:41;4.25;;;1.48;;
26181;SDS011;13927;51.534;11.866;2023-07-13T06:49:08;5.32;;;1.02;;
26181;SDS011;13927;51.534;11.866;2023-07-13T06:51:34;3.72;;;1.65;;
26181;SDS011;13927;51.534;11.866;2023-07-13T06:54:00;4.97;;;1.40;;
26181;SDS011;13927;51.534;11.866;2023-07-13T06:56:25;4.35;;;1.40;;
26181;SDS011;13927;51.534;11.866;2023-07-13T06:58:51;4.68;;;1.52;;
26181;SDS011;13927;51.534;11.866;2023-07-13T07:01:17;4.50;;;1.50;;
26181;SDS011;13927;51.534;11.866;2023-07-13T07:03:42;4.63;;;1.17;;
26181;SDS011;13927;51.534;11.866;2023-07-13T07:06:12;5.38;;;1.77;;
26181;SDS011;13927;51.534;11.866;2023-07-13T07:08:42;5.45;;;1.27;;
26181;SDS011;13927;51.534;11.866;2023-07-13T07:11:09;4.15;;;1.27;;
26181;SDS011;13927;51.534;11.866;2023-07-13T07:13:47;5.55;;;1.52;;
26181;SDS011;13927;51.534;11.866;2023-07-13T07:16:14;3.83;;;1.60;;
26181;SDS011;13927;51.534;11.866;2023-07-13T07:18:41;3.25;;;1.63;;
26181;SDS011;13927;51.534;11.866;2023-07-13T07:21:06;5.03;;;1.60;;
26181;SDS011;13927;51.534;11.866;2023-07-13T07:23:32;7.20;;;1.45;;
26181;SDS011;13927;51.534;11.866;2023-07-13T07:25:58;6.75;;;1.45;;
26181;SDS011;13927;51.534;11.866;2023-07-13T07:28:24;6.07;;;1.58;;
26181;SDS011;13927;51.534;11.866;2023-07-13T07:30:52;4.57;;;2.08;;
26181;SDS011;13927;51.534;11.866;2023-07-13T07:33:19;4.00;;;1.98;;
26181;SDS011;13927;51.534;11.866;2023-07-13T07:38:30;4.30;;;1.48;;
26181;SDS011;13927;51.534;11.866;2023-07-13T07:40:56;2.95;;;1.38;;
26181;SDS011;13927;51.534;11.866;2023-07-13T07:43:22;6.88;;;1.65;;
26181;SDS011;13927;51.534;11.866;2023-07-13T07:45:47;4.60;;;1.58;;
26181;SDS011;13927;51.534;11.866;2023-07-13T07:48:14;5.68;;;1.90;;
26181;SDS011;13927;51.534;11.866;2023-07-13T07:50:39;4.63;;;1.58;;
26181;SDS011;13927;51.534;11.866;2023-07-13T07:53:06;3.45;;;1.40;;
26181;SDS011;13927;51.534;11.866;2023-07-13T07:55:33;4.78;;;1.95;;
26181;SDS011;13927;51.534;11.866;2023-07-13T07:58:00;3.78;;;1.75;;
26181;SDS011;13927;51.534;11.866;2023-07-13T08:00:26;6.07;;;1.92;;
26181;SDS011;13927;51.534;11.866;2023-07-13T08:02:55;6.97;;;1.83;;
26181;SDS011;13927;51.534;11.866;2023-07-13T08:05:21;5.15;;;2.20;;
26181;SDS011;13927;51.534;11.866;2023-07-13T08:07:46;4.35;;;1.85;;
26181;SDS011;13927;51.534;11.866;2023-07-13T08:10:12;4.68;;;2.00;;
26181;SDS011;13927;51.534;11.866;2023-07-13T08:12:38;6.15;;;2.10;;
26181;SDS011;13927;51.534;11.866;2023-07-13T08:15:05;6.63;;;2.10;;
26181;SDS011;13927;51.534;11.866;2023-07-13T08:17:35;5.35;;;1.88;;
26181;SDS011;13927;51.534;11.866;2023-07-13T08:20:01;7.80;;;2.33;;
26181;SDS011;13927;51.534;11.866;2023-07-13T08:22:27;4.45;;;2.08;;
26181;SDS011;13927;51.534;11.866;2023-07-13T08:30:47;4.75;;;1.90;;
26181;SDS011;13927;51.534;11.866;2023-07-13T08:33:19;4.93;;;2.00;;
26181;SDS011;13927;51.534;11.866;2023-07-13T08:35:50;6.50;;;2.05;;
26181;SDS011;13927;51.534;11.866;2023-07-13T08:38:22;6.65;;;2.00;;
26181;SDS011;13927;51.534;11.866;2023-07-13T08:40:50;6.40;;;2.45;;
26181;SDS011;13927;51.534;11.866;2023-07-13T08:43:28;6.32;;;1.98;;
26181;SDS011;13927;51.534;11.866;2023-07-13T08:46:02;3.80;;;1.80;;
26181;SDS011;13927;51.534;11.866;2023-07-13T08:51:26;8.07;;;2.25;;
26181;SDS011;13927;51.534;11.866;2023-07-13T08:54:04;7.50;;;2.42;;
26181;SDS011;13927;51.534;11.866;2023-07-13T08:56:54;4.78;;;1.70;;
26181;SDS011;13927;51.534;11.866;2023-07-13T08:59:24;5.22;;;2.03;;
26181;SDS011;13927;51.534;11.866;2023-07-13T09:04:48;3.65;;;1.75;;
26181;SDS011;13927;51.534;11.866;2023-07-13T09:10:47;2.25;;;1.25;;
26181;SDS011;13927;51.534;11.866;2023-07-13T09:16:15;4.47;;;1.80;;
26181;SDS011;13927;51.534;11.866;2023-07-13T09:18:42;4.40;;;1.90;;
26181;SDS011;13927;51.534;11.866;2023-07-13T09:21:16;5.15;;;1.60;;
26181;SDS011;13927;51.534;11.866;2023-07-13T09:24:21;3.72;;;1.27;;
26181;SDS011;13927;51.534;11.866;2023-07-13T09:27:14;2.85;;;1.65;;
26181;SDS011;13927;51.534;11.866;2023-07-13T09:29:51;1.75;;;1.23;;
26181;SDS011;13927;51.534;11.866;2023-07-13T09:32:28;5.05;;;1.70;;
26181;SDS011;13927;51.534;11.866;2023-07-13T09:34:55;3.92;;;1.50;;
26181;SDS011;13927;51.534;11.866;2023-07-13T09:37:21;3.97;;;1.50;;
26181;SDS011;13927;51.534;11.866;2023-07-13T09:39:58;4.28;;;1.63;;
26181;SDS011;13927;51.534;11.866;2023-07-13T09:42:26;5.90;;;2.08;;
26181;SDS011;13927;51.534;11.866;2023-07-13T09:44:54;2.95;;;1.38;;
26181;SDS011;13927;51.534;11.866;2023-07-13T09:47:29;4.93;;;1.50;;
26181;SDS011;13927;51.534;11.866;2023-07-13T09:50:10;3.00;;;1.27;;
26181;SDS011;13927;51.534;11.866;2023-07-13T09:52:47;3.53;;;1.65;;
26181;SDS011;13927;51.534;11.866;2023-07-13T09:58:43;2.55;;;1.27;;
26181;SDS011;13927;51.534;11.866;2023-07-13T10:01:10;5.70;;;1.67;;
26181;SDS011;13927;51.534;11.866;2023-07-13T10:03:38;4.85;;;1.48;;
26181;SDS011;13927;51.534;11.866;2023-07-13T10:06:11;1.83;;;1.30;;
26181;SDS011;13927;51.534;11.866;2023-07-13T10:08:44;6.60;;;1.70;;
26181;SDS011;13927;51.534;11.866;2023-07-13T10:13:54;2.95;;;1.30;;
26181;SDS011;13927;51.534;11.866;2023-07-13T10:16:33;2.75;;;1.65;;
26181;SDS011;13927;51.534;11.866;2023-07-13T10:19:10;3.25;;;1.40;;
26181;SDS011;13927;51.534;11.866;2023-07-13T10:22:13;2.60;;;1.40;;
26181;SDS011;13927;51.534;11.866;2023-07-13T10:24:51;4.18;;;1.27;;
26181;SDS011;13927;51.534;11.866;2023-07-13T10:30:11;1.73;;;1.13;;
26181;SDS011;13927;51.534;11.866;2023-07-13T10:32:45;4.40;;;1.75;;
26181;SDS011;13927;51.534;11.866;2023-07-13T10:35:14;2.15;;;1.27;;
26181;SDS011;13927;51.534;11.866;2023-07-13T10:37:50;2.80;;;1.50;;
26181;SDS011;13927;51.534;11.866;2023-07-13T10:40:27;4.20;;;1.30;;
26181;SDS011;13927;51.534;11.866;2023-07-13T10:43:04;6.10;;;1.50;;
26181;SDS011;13927;51.534;11.866;2023-07-13T10:45:46;2.95;;;1.33;;
26181;SDS011;13927;51.534;11.866;2023-07-13T10:48:15;3.13;;;1.47;;
26181;SDS011;13927;51.534;11.866;2023-07-13T10:50:42;3.97;;;1.48;;
26181;SDS011;13927;51.534;11.866;2023-07-13T10:53:17;2.58;;;0.98;;
26181;SDS011;13927;51.534;11.866;2023-07-13T10:55:58;3.78;;;1.30;;
26181;SDS011;13927;51.534;11.866;2023-07-13T10:58:43;3.72;;;1.10;;
26181;SDS011;13927;51.534;11.866;2023-07-13T11:01:10;1.90;;;1.25;;
26181;SDS011;13927;51.534;11.866;2023-07-13T11:30:37;1.95;;;0.95;;
26181;SDS011;13927;51.534;11.866;2023-07-13T11:33:45;4.07;;;0.90;;
26181;SDS011;13927;51.534;11.866;2023-07-13T11:36:23;1.55;;;0.80;;
26181;SDS011;13927;51.534;11.866;2023-07-13T11:39:30;2.85;;;0.70;;
26181;SDS011;13927;51.534;11.866;2023-07-13T11:41:56;3.55;;;0.85;;
26181;SDS011;13927;51.534;11.866;2023-07-13T11:44:26;4.25;;;1.02;;
26181;SDS011;13927;51.534;11.866;2023-07-13T11:46:59;2.03;;;1.00;;
26181;SDS011;13927;51.534;11.866;2023-07-13T11:49:40;4.38;;;0.85;;
26181;SDS011;13927;51.534;11.866;2023-07-13T11:52:17;2.42;;;1.13;;
26181;SDS011;13927;51.534;11.866;2023-07-13T11:54:53;4.20;;;0.93;;
26181;SDS011;13927;51.534;11.866;2023-07-13T11:59:59;1.25;;;0.80;;
26181;SDS011;13927;51.534;11.866;2023-07-13T12:02:36;2.65;;;0.73;;
26181;SDS011;13927;51.534;11.866;2023-07-13T12:08:39;4.32;;;1.17;;
26181;SDS011;13927;51.534;11.866;2023-07-13T12:11:15;2.25;;;0.90;;
26181;SDS011;13927;51.534;11.866;2023-07-13T12:13:43;2.17;;;1.00;;
26181;SDS011;13927;51.534;11.866;2023-07-13T12:16:10;4.13;;;1.17;;
26181;SDS011;13927;51.534;11.866;2023-07-13T12:21:17;3.67;;;0.85;;
26181;SDS011;13927;51.534;11.866;2023-07-13T12:23:44;6.50;;;1.13;;
26181;SDS011;13927;51.534;11.866;2023-07-13T12:26:17;2.95;;;1.00;;
26181;SDS011;13927;51.534;11.866;2023-07-13T12:31:43;3.05;;;1.08;;
26181;SDS011;13927;51.534;11.866;2023-07-13T12:34:22;4.13;;;0.90;;
26181;SDS011;13927;51.534;11.866;2023-07-13T12:36:54;4.25;;;1.45;;
26181;SDS011;13927;51.534;11.866;2023-07-13T12:42:22;2.20;;;0.98;;
26181;SDS011;13927;51.534;11.866;2023-07-13T12:44:53;3.03;;;1.13;;
26181;SDS011;13927;51.534;11.866;2023-07-13T12:47:24;1.75;;;1.00;;
26181;SDS011;13927;51.534;11.866;2023-07-13T12:49:53;2.40;;;1.13;;
26181;SDS011;13927;51.534;11.866;2023-07-13T12:52:33;2.47;;;1.20;;
26181;SDS011;13927;51.534;11.866;2023-07-13T12:57:55;3.35;;;1.30;;
26181;SDS011;13927;51.534;11.866;2023-07-13T13:00:35;2.53;;;1.08;;
26181;SDS011;13927;51.534;11.866;2023-07-13T13:03:24;2.90;;;1.10;;
26181;SDS011;13927;51.534;11.866;2023-07-13T13:06:02;1.85;;;1.20;;
26181;SDS011;13927;51.534;11.866;2023-07-13T13:08:51;3.72;;;1.08;;
26181;SDS011;13927;51.534;11.866;2023-07-13T13:11:20;2.22;;;1.15;;
26181;SDS011;13927;51.534;11.866;2023-07-13T13:13:48;4.32;;;1.20;;
26181;SDS011;13927;51.534;11.866;2023-07-13T13:16:22;2.20;;;1.13;;
26181;SDS011;13927;51.534;11.866;2023-07-13T13:22:37;4.00;;;1.00;;
26181;SDS011;13927;51.534;11.866;2023-07-13T13:25:02;2.83;;;1.23;;
26181;SDS011;13927;51.534;11.866;2023-07-13T13:31:11;3.70;;;1.40;;
26181;SDS011;13927;51.534;11.866;2023-07-13T13:33:42;2.85;;;1.23;;
26181;SDS011;13927;51.534;11.866;2023-07-13T13:36:14;2.20;;;1.33;;
26181;SDS011;13927;51.534;11.866;2023-07-13T13:38:46;1.77;;;1.08;;
26181;SDS011;13927;51.534;11.866;2023-07-13T13:41:13;5.70;;;1.73;;
26181;SDS011;13927;51.534;11.866;2023-07-13T13:43:40;4.07;;;1.38;;
26181;SDS011;13927;51.534;11.866;2023-07-13T13:46:17;2.30;;;1.30;;
26181;SDS011;13927;51.534;11.866;2023-07-13T13:48:47;2.35;;;1.30;;
26181;SDS011;13927;51.534;11.866;2023-07-13T13:53:58;2.50;;;1.30;;
26181;SDS011;13927;51.534;11.866;2023-07-13T13:56:24;2.90;;;1.40;;
26181;SDS011;13927;51.534;11.866;2023-07-13T13:58:51;2.03;;;1.10;;
26181;SDS011;13927;51.534;11.866;2023-07-13T14:01:18;2.22;;;1.08;;
26181;SDS011;13927;51.534;11.866;2023-07-13T14:03:47;2.55;;;1.23;;
26181;SDS011;13927;51.534;11.866;2023-07-13T14:06:16;3.22;;;1.38;;
26181;SDS011;13927;51.534;11.866;2023-07-13T14:08:42;3.25;;;1.20;;
26181;SDS011;13927;51.534;11.866;2023-07-13T14:11:12;2.92;;;1.10;;
26181;SDS011;13927;51.534;11.866;2023-07-13T14:13:41;2.35;;;1.27;;
26181;SDS011;13927;51.534;11.866;2023-07-13T14:16:12;2.75;;;1.42;;
26181;SDS011;13927;51.534;11.866;2023-07-13T14:18:43;4.97;;;1.50;;
26181;SDS011;13927;51.534;11.866;2023-07-13T14:21:22;1.50;;;1.00;;
26181;SDS011;13927;51.534;11.866;2023-07-13T14:23:48;2.05;;;1.10;;
26181;SDS011;13927;51.534;11.866;2023-07-13T14:26:16;3.80;;;1.33;;
26181;SDS011;13927;51.534;11.866;2023-07-13T14:28:53;4.10;;;1.33;;
26181;SDS011;13927;51.534;11.866;2023-07-13T14:31:23;2.97;;;1.40;;
26181;SDS011;13927;51.534;11.866;2023-07-13T14:33:53;2.42;;;1.20;;
26181;SDS011;13927;51.534;11.866;2023-07-13T14:38:57;3.20;;;1.20;;
26181;SDS011;13927;51.534;11.866;2023-07-13T14:41:25;2.60;;;1.20;;
26181;SDS011;13927;51.534;11.866;2023-07-13T14:43:51;2.80;;;1.05;;
26181;SDS011;13927;51.534;11.866;2023-07-13T14:51:50;2.08;;;1.15;;
26181;SDS011;13927;51.534;11.866;2023-07-13T14:54:17;2.95;;;1.10;;
26181;SDS011;13927;51.534;11.866;2023-07-13T14:56:43;4.68;;;1.42;;
26181;SDS011;13927;51.534;11.866;2023-07-13T14:59:08;1.65;;;0.93;;
26181;SDS011;13927;51.534;11.866;2023-07-13T15:01:35;2.20;;;1.10;;
26181;SDS011;13927;51.534;11.866;2023-07-13T15:04:02;2.83;;;1.40;;
26181;SDS011;13927;51.534;11.866;2023-07-13T15:06:35;3.10;;;1.10;;
26181;SDS011;13927;51.534;11.866;2023-07-13T15:09:21;2.25;;;1.35;;
26181;SDS011;13927;51.534;11.866;2023-07-13T15:11:57;1.83;;;0.95;;
26181;SDS011;13927;51.534;11.866;2023-07-13T15:14:24;2.95;;;1.23;;
26181;SDS011;13927;51.534;11.866;2023-07-13T15:17:00;6.72;;;1.40;;
26181;SDS011;13927;51.534;11.866;2023-07-13T15:19:26;2.60;;;1.10;;
26181;SDS011;13927;51.534;11.866;2023-07-13T15:21:53;2.75;;;1.38;;
26181;SDS011;13927;51.534;11.866;2023-07-13T15:24:22;4.45;;;1.30;;
26181;SDS011;13927;51.534;11.866;2023-07-13T15:26:51;4.00;;;1.33;;
26181;SDS011;13927;51.534;11.866;2023-07-13T15:29:20;4.03;;;1.60;;
26181;SDS011;13927;51.534;11.866;2023-07-13T15:31:46;4.18;;;1.10;;
26181;SDS011;13927;51.534;11.866;2023-07-13T15:34:13;3.92;;;1.17;;
26181;SDS011;13927;51.534;11.866;2023-07-13T15:36:42;3.50;;;1.75;;
26181;SDS011;13927;51.534;11.866;2023-07-13T15:42:33;4.07;;;1.13;;
26181;SDS011;13927;51.534;11.866;2023-07-13T15:45:01;3.83;;;1.50;;
26181;SDS011;13927;51.534;11.866;2023-07-13T15:47:30;3.90;;;1.23;;
26181;SDS011;13927;51.534;11.866;2023-07-13T15:49:56;3.83;;;1.55;;
26181;SDS011;13927;51.534;11.866;2023-07-13T15:52:23;3.05;;;1.25;;
26181;SDS011;13927;51.534;11.866;2023-07-13T15:54:49;3.30;;;1.35;;
26181;SDS011;13927;51.534;11.866;2023-07-13T15:57:16;4.05;;;1.35;;
26181;SDS011;13927;51.534;11.866;2023-07-13T15:59:44;3.95;;;1.00;;
26181;SDS011;13927;51.534;11.866;2023-07-13T16:02:17;2.75;;;1.33;;
26181;SDS011;13927;51.534;11.866;2023-07-13T16:04:54;3.30;;;1.00;;
26181;SDS011;13927;51.534;11.866;2023-07-13T16:07:35;2.28;;;1.15;;
26181;SDS011;13927;51.534;11.866;2023-07-13T16:10:36;4.68;;;1.75;;
26181;SDS011;13927;51.534;11.866;2023-07-13T16:13:46;3.25;;;1.30;;
26181;SDS011;13927;51.534;11.866;2023-07-13T16:16:30;3.45;;;1.10;;
26181;SDS011;13927;51.534;11.866;2023-07-13T16:19:11;3.78;;;1.42;;
26181;SDS011;13927;51.534;11.866;2023-07-13T16:21:50;2.80;;;1.27;;
26181;SDS011;13927;51.534;11.866;2023-07-13T16:24:21;1.65;;;1.00;;
26181;SDS011;13927;51.534;11.866;2023-07-13T16:27:00;2.38;;;0.98;;
26181;SDS011;13927;51.534;11.866;2023-07-13T16:30:09;4.18;;;1.20;;
26181;SDS011;13927;51.534;11.866;2023-07-13T16:33:15;4.07;;;1.02;;
26181;SDS011;13927;51.534;11.866;2023-07-13T16:38:52;3.78;;;1.35;;
26181;SDS011;13927;51.534;11.866;2023-07-13T16:41:58;3.97;;;1.42;;
26181;SDS011;13927;51.534;11.866;2023-07-13T16:44:33;2.10;;;1.10;;
26181;SDS011;13927;51.534;11.866;2023-07-13T16:47:33;2.72;;;1.58;;
26181;SDS011;13927;51.534;11.866;2023-07-13T16:50:15;2.53;;;1.10;;
26181;SDS011;13927;51.534;11.866;2023-07-13T16:52:56;9.60;;;1.38;;
26181;SDS011;13927;51.534;11.866;2023-07-13T16:55:30;3.67;;;1.27;;
26181;SDS011;13927;51.534;11.866;2023-07-13T16:58:17;2.67;;;1.10;;
26181;SDS011;13927;51.534;11.866;2023-07-13T17:01:12;2.80;;;1.27;;
26181;SDS011;13927;51.534;11.866;2023-07-13T17:03:57;2.63;;;1.00;;
26181;SDS011;13927;51.534;11.866;2023-07-13T17:06:41;2.40;;;1.33;;
26181;SDS011;13927;51.534;11.866;2023-07-13T17:09:13;3.00;;;1.40;;
26181;SDS011;13927;51.534;11.866;2023-07-13T17:11:59;4.72;;;1.20;;
26181;SDS011;13927;51.534;11.866;2023-07-13T17:14:27;2.20;;;0.90;;
26181;SDS011;13927;51.534;11.866;2023-07-13T17:17:05;3.45;;;1.05;;
26181;SDS011;13927;51.534;11.866;2023-07-13T17:20:03;2.20;;;1.23;;
26181;SDS011;13927;51.534;11.866;2023-07-13T17:22:36;3.95;;;1.48;;
26181;SDS011;13927;51.534;11.866;2023-07-13T17:25:25;4.32;;;1.20;;
26181;SDS011;13927;51.534;11.866;2023-07-13T17:27:51;5.05;;;1.50;;
26181;SDS011;13927;51.534;11.866;2023-07-13T17:30:21;2.45;;;1.23;;
26181;SDS011;13927;51.534;11.866;2023-07-13T17:32:48;1.88;;;1.02;;
26181;SDS011;13927;51.534;11.866;2023-07-13T17:35:27;3.40;;;1.30;;
26181;SDS011;13927;51.534;11.866;2023-07-13T17:37:57;2.20;;;1.20;;